Elite — PHDA — position and weather

sailwx.info

Track history (hours):
 
Tides and Currents Weather Stations Pressure Air Temp Water Temp Dewpoint Dewpoint Depression Visibility Wind Speed Wind Dir Waves Ship Positions

Elite

Last reported at 2018-Feb-22 05:00 UTC. Time now 2018-Feb-22 05:09 UTC.
Position N 50°51' E 001°24'.

Length 149 m; draft 8.5 m.

Type: Ship (hazmat cat A). MMSI: 246363000.

Date/timePositionNaut miles runAvg speedWind from/ knotsBaromVisibWave heightAir tempDewpointWater temp
2018-Feb-22 05:00N 50°51' E 001°24'6011.9
2018-Feb-21 23:55N 50°20' E 000°03'613.1
2018-Feb-21 23:30N 50°19' W 000°05'713.0
2018-Feb-21 23:00N 50°17' W 000°15'2612.4
2018-Feb-21 20:53N 50°10' W 000°55'411.4
2018-Feb-21 20:30N 50°09' W 001°01'510.8
2018-Feb-21 20:00N 50°08' W 001°09'510.3
2018-Feb-21 19:30N 50°07' W 001°17'5 9.5
2018-Feb-21 19:01N 50°05' W 001°24'5 9.3
2018-Feb-21 18:30N 50°04' W 001°31'4 8.8
2018-Feb-21 18:01N 50°03' W 001°38'4 8.4
2018-Feb-21 17:30N 50°02' W 001°44'4 8.3
2018-Feb-21 17:00N 50°00' W 001°50'12213.6
2018-Feb-21 08:04N 49°07' W 004°39'117.1
2018-Feb-21 07:59N 49°06' W 004°41'916.7
2018-Feb-21 07:28N 49°02' W 004°52'3316.8
2018-Feb-21 05:29N 48°45' W 005°36'46514.3
2018-Feb-19 21:01N 41°21' W 008°54'115.1
2018-Feb-19 20:55N 41°20' W 008°53'715.3
2018-Feb-19 20:30N 41°14' W 008°49'612.5
2018-Feb-19 20:00N 41°10' W 008°42'2 3.2
2018-Feb-19 19:30N 41°12' W 008°41'0 0.0
2018-Feb-19 19:00N 41°12' W 008°41'0 0.0
2018-Feb-19 18:30N 41°12' W 008°41'0 0.0
2018-Feb-19 18:00N 41°12' W 008°41'0 0.0
2018-Feb-19 17:30N 41°12' W 008°41'0 0.0
2018-Feb-19 17:00N 41°12' W 008°41'0 0.0
2018-Feb-19 16:30N 41°12' W 008°41'0 0.0
2018-Feb-19 16:00N 41°12' W 008°41'0 0.0
2018-Feb-19 15:30N 41°12' W 008°41'0 0.0
2018-Feb-19 15:00N 41°12' W 008°41'0 0.0
2018-Feb-19 14:30N 41°12' W 008°41'0 0.0
2018-Feb-19 14:00N 41°12' W 008°41'0 0.0
2018-Feb-19 13:30N 41°12' W 008°41'0 0.0
2018-Feb-19 13:00N 41°12' W 008°41'0 0.0
2018-Feb-19 12:30N 41°12' W 008°41'0 0.0
2018-Feb-19 12:00N 41°12' W 008°41'0 0.0
2018-Feb-19 11:30N 41°12' W 008°41'0 0.0
2018-Feb-19 11:00N 41°12' W 008°41'0 0.0
2018-Feb-19 10:30N 41°12' W 008°41'0 0.0
2018-Feb-19 10:00N 41°12' W 008°41'0 0.0
2018-Feb-19 09:30N 41°12' W 008°41'0 0.0
2018-Feb-19 09:00N 41°12' W 008°41'0 0.0
2018-Feb-19 08:30N 41°12' W 008°41'0 0.0
2018-Feb-19 08:00N 41°12' W 008°41'0 0.0
2018-Feb-19 07:30N 41°12' W 008°41'0 0.0
2018-Feb-19 07:00N 41°12' W 008°41'0 0.0
2018-Feb-19 06:30N 41°12' W 008°41'0 0.0
2018-Feb-19 06:01N 41°12' W 008°41'0 0.0
2018-Feb-19 05:30N 41°12' W 008°41'0 0.0
2018-Feb-19 05:00N 41°12' W 008°41'0 0.0
2018-Feb-19 04:30N 41°12' W 008°41'0 0.0
2018-Feb-19 04:00N 41°12' W 008°41'0 0.0
2018-Feb-19 03:31N 41°12' W 008°41'0 0.0
2018-Feb-19 03:00N 41°12' W 008°41'0 0.0
2018-Feb-19 02:30N 41°12' W 008°41'0 0.0
2018-Feb-19 02:00N 41°12' W 008°41'0 0.0
2018-Feb-19 01:29N 41°12' W 008°41'0 0.0
2018-Feb-19 01:00N 41°12' W 008°41'0 0.0
2018-Feb-19 00:30N 41°12' W 008°41'0 0.0
2018-Feb-19 00:00N 41°12' W 008°41'0 0.0
2018-Feb-18 23:30N 41°12' W 008°41'0 0.0
2018-Feb-18 23:00N 41°12' W 008°41'0 0.0
2018-Feb-18 22:30N 41°12' W 008°41'0 0.0
2018-Feb-18 22:00N 41°12' W 008°41'0 0.0
2018-Feb-18 21:30N 41°12' W 008°41'0 0.0
2018-Feb-18 21:00N 41°12' W 008°41'0 0.0
2018-Feb-18 20:30N 41°12' W 008°41'0 0.0
2018-Feb-18 20:00N 41°12' W 008°41'0 0.4
2018-Feb-18 19:30N 41°11' W 008°41'2 4.3
2018-Feb-18 19:00N 41°09' W 008°42'2 4.3
2018-Feb-18 18:30N 41°08' W 008°45'0 0.5
2018-Feb-18 17:58N 41°08' W 008°45'0 0.0
2018-Feb-18 17:25N 41°08' W 008°45'0 0.0
2018-Feb-18 16:58N 41°08' W 008°45'0 0.0
2018-Feb-18 16:28N 41°08' W 008°45'0 0.0
2018-Feb-18 15:52N 41°08' W 008°45'0 0.0
2018-Feb-18 15:28N 41°08' W 008°45'0 0.0
2018-Feb-18 14:58N 41°08' W 008°45'0 0.0
2018-Feb-18 14:28N 41°08' W 008°45'0 0.0
2018-Feb-18 13:46N 41°08' W 008°45'0 0.0
2018-Feb-18 13:28N 41°08' W 008°45'0 0.0
2018-Feb-18 12:55N 41°08' W 008°45'0 0.1
2018-Feb-18 12:28N 41°08' W 008°45'0 0.0
2018-Feb-18 11:58N 41°08' W 008°45'0 0.0
2018-Feb-18 11:28N 41°08' W 008°45'0 0.0
2018-Feb-18 10:58N 41°08' W 008°45'0 0.0
2018-Feb-18 10:28N 41°08' W 008°45'0 0.0
2018-Feb-18 09:58N 41°08' W 008°45'0 0.0
2018-Feb-18 09:28N 41°08' W 008°45'0 0.1
2018-Feb-18 08:55N 41°08' W 008°45'0 0.1
2018-Feb-18 08:28N 41°08' W 008°45'0 0.0
2018-Feb-18 07:58N 41°08' W 008°45'0 0.1
2018-Feb-18 07:28N 41°08' W 008°45'0 0.0
2018-Feb-18 06:58N 41°08' W 008°45'0 0.0
2018-Feb-18 06:28N 41°08' W 008°45'0 0.0
2018-Feb-18 05:58N 41°08' W 008°45'0 0.0
2018-Feb-18 05:28N 41°08' W 008°45'0 0.0
2018-Feb-18 04:58N 41°08' W 008°45'0 0.0
2018-Feb-18 04:28N 41°08' W 008°45'0 0.0
2018-Feb-18 03:58N 41°08' W 008°45'0 0.0
2018-Feb-18 03:28N 41°08' W 008°45'0 0.0
2018-Feb-18 02:58N 41°08' W 008°45'0 0.0
2018-Feb-18 02:28N 41°08' W 008°45'0 0.0
2018-Feb-18 01:58N 41°08' W 008°45'0 0.0
2018-Feb-18 01:28N 41°08' W 008°45'0 0.0
2018-Feb-18 00:55N 41°08' W 008°45'0 0.0
2018-Feb-18 00:28N 41°08' W 008°45'0 0.0
2018-Feb-17 23:55N 41°08' W 008°45'0 0.0
2018-Feb-17 23:28N 41°08' W 008°45'0 0.0
2018-Feb-17 22:58N 41°08' W 008°45'0 0.0
2018-Feb-17 22:25N 41°08' W 008°45'0 0.0
2018-Feb-17 21:55N 41°08' W 008°45'0 0.0
2018-Feb-17 21:25N 41°08' W 008°45'0 0.0
2018-Feb-17 21:01N 41°08' W 008°45'0 0.0
2018-Feb-17 20:31N 41°08' W 008°45'0 0.0
2018-Feb-17 20:01N 41°08' W 008°45'0 0.0
2018-Feb-17 19:30N 41°08' W 008°45'0 0.0
2018-Feb-17 18:57N 41°08' W 008°45'0 0.0
2018-Feb-17 18:30N 41°08' W 008°45'0 0.0
2018-Feb-17 18:00N 41°08' W 008°45'0 0.0
2018-Feb-17 17:21N 41°08' W 008°45'0 0.0
2018-Feb-17 17:00N 41°08' W 008°45'0 0.0
2018-Feb-17 16:27N 41°08' W 008°45'0 0.0
2018-Feb-17 16:00N 41°08' W 008°45'0 0.0
2018-Feb-17 15:15N 41°08' W 008°45'0 0.0
2018-Feb-17 14:42N 41°08' W 008°45'0 0.0
2018-Feb-17 14:18N 41°08' W 008°45'0 0.0
2018-Feb-17 14:00N 41°08' W 008°45'0 0.0
2018-Feb-17 13:24N 41°08' W 008°45'0 0.0
2018-Feb-17 12:57N 41°08' W 008°45'0 0.0
2018-Feb-17 12:24N 41°08' W 008°45'0 0.0
2018-Feb-17 12:00N 41°08' W 008°45'0 0.0
2018-Feb-17 11:30N 41°08' W 008°45'0 0.0
2018-Feb-17 10:57N 41°08' W 008°45'0 0.0
2018-Feb-17 10:30N 41°08' W 008°45'0 0.0
2018-Feb-17 10:00N 41°08' W 008°45'0 0.2
2018-Feb-17 09:30N 41°08' W 008°45'9714.8
2018-Feb-17 02:59N 39°41' W 009°40'816.2
2018-Feb-17 02:29N 39°34' W 009°44'815.7
2018-Feb-17 01:59N 39°26' W 009°45'816.4
2018-Feb-17 01:30N 39°18' W 009°45'816.0
2018-Feb-17 01:00N 39°10' W 009°45'815.9
2018-Feb-17 00:30N 39°02' W 009°45'816.1
2018-Feb-17 00:00N 38°54' W 009°43'815.9
2018-Feb-16 23:31N 38°47' W 009°42'815.8
2018-Feb-16 23:00N 38°39' W 009°41'815.3
2018-Feb-16 22:30N 38°33' W 009°34'815.6
2018-Feb-16 22:00N 38°28' W 009°27'815.6
2018-Feb-16 21:30N 38°22' W 009°20'713.9
2018-Feb-16 21:00N 38°21' W 009°11'815.7
2018-Feb-16 20:30N 38°25' W 009°02'612.7
2018-Feb-16 20:00N 38°29' W 008°56'4 7.2
2018-Feb-16 19:30N 38°31' W 008°52'0 0.0
2018-Feb-16 19:00N 38°31' W 008°52'0 0.0
2018-Feb-16 18:30N 38°31' W 008°52'0 0.0
2018-Feb-16 17:59N 38°31' W 008°52'0 0.0
2018-Feb-16 17:30N 38°31' W 008°52'0 0.0
2018-Feb-16 17:00N 38°31' W 008°52'0 0.0
2018-Feb-16 16:30N 38°31' W 008°52'0 0.0
2018-Feb-16 16:00N 38°31' W 008°52'0 0.0
2018-Feb-16 15:30N 38°31' W 008°52'0 0.0
2018-Feb-16 15:00N 38°31' W 008°52'0 0.0
2018-Feb-16 14:30N 38°31' W 008°52'0 0.0
2018-Feb-16 13:58N 38°31' W 008°52'0 0.0
2018-Feb-16 13:25N 38°31' W 008°52'0 0.0
2018-Feb-16 13:00N 38°31' W 008°52'0 0.0
2018-Feb-16 12:24N 38°31' W 008°52'0 0.0
2018-Feb-16 11:59N 38°31' W 008°52'0 0.0
2018-Feb-16 11:29N 38°31' W 008°52'0 0.0
2018-Feb-16 10:53N 38°31' W 008°52'0 0.0
2018-Feb-16 10:30N 38°31' W 008°52'0 0.0
2018-Feb-16 10:00N 38°31' W 008°52'0 0.0
2018-Feb-16 09:30N 38°31' W 008°52'0 0.0
2018-Feb-16 08:59N 38°31' W 008°52'0 0.0
2018-Feb-16 08:30N 38°31' W 008°52'0 0.0
2018-Feb-16 07:47N 38°31' W 008°52'0 0.0
2018-Feb-16 07:22N 38°31' W 008°52'0 0.0
2018-Feb-16 06:52N 38°31' W 008°52'0 0.0
2018-Feb-16 06:30N 38°31' W 008°52'0 0.0
2018-Feb-16 06:00N 38°31' W 008°52'0 0.0
2018-Feb-16 05:29N 38°31' W 008°52'0 0.0
2018-Feb-16 04:47N 38°31' W 008°52'0 0.0
2018-Feb-16 04:30N 38°31' W 008°52'0 0.0
2018-Feb-16 04:00N 38°31' W 008°52'0 0.0
2018-Feb-16 03:30N 38°31' W 008°52'0 0.0
2018-Feb-16 03:00N 38°31' W 008°52'0 0.0
2018-Feb-16 02:29N 38°31' W 008°52'0 0.0
2018-Feb-16 02:00N 38°31' W 008°52'0 0.0
2018-Feb-16 01:30N 38°31' W 008°52'0 0.0
2018-Feb-16 00:53N 38°31' W 008°52'0 0.0
2018-Feb-16 00:30N 38°31' W 008°52'0 0.2
2018-Feb-15 23:56N 38°31' W 008°52'3 7.0
2018-Feb-15 23:30N 38°29' W 008°56'713.8
2018-Feb-15 23:00N 38°25' W 009°02'917.6
2018-Feb-15 22:31N 38°21' W 009°12'815.5
2018-Feb-15 22:00N 38°26' W 009°19'917.6
2018-Feb-15 21:30N 38°34' W 009°22'816.0
2018-Feb-15 21:00N 38°41' W 009°17'612.8
2018-Feb-15 20:30N 38°42' W 009°09'2 5.0
2018-Feb-15 20:00N 38°44' W 009°06'0 0.0
2018-Feb-15 19:30N 38°44' W 009°06'0 0.0
2018-Feb-15 18:59N 38°44' W 009°06'0 0.0
2018-Feb-15 18:30N 38°44' W 009°06'0 0.0
2018-Feb-15 18:00N 38°44' W 009°06'0 0.0
2018-Feb-15 17:30N 38°44' W 009°06'0 0.0
2018-Feb-15 17:00N 38°44' W 009°06'0 0.0
2018-Feb-15 16:30N 38°44' W 009°06'0 0.0
2018-Feb-15 16:00N 38°44' W 009°06'0 0.0
2018-Feb-15 15:30N 38°44' W 009°06'0 0.0
2018-Feb-15 15:00N 38°44' W 009°06'0 0.0
2018-Feb-15 14:30N 38°44' W 009°06'0 0.0
2018-Feb-15 14:00N 38°44' W 009°06'0 0.0
2018-Feb-15 13:30N 38°44' W 009°06'0 0.0
2018-Feb-15 13:00N 38°44' W 009°06'0 0.0
2018-Feb-15 12:30N 38°44' W 009°06'0 0.0
2018-Feb-15 12:00N 38°44' W 009°06'0 0.0
2018-Feb-15 11:30N 38°44' W 009°06'0 0.0
2018-Feb-15 11:00N 38°44' W 009°06'0 0.0
2018-Feb-15 10:30N 38°44' W 009°06'0 0.0
2018-Feb-15 10:00N 38°44' W 009°06'0 0.0
2018-Feb-15 09:30N 38°44' W 009°06'0 0.0
2018-Feb-15 09:00N 38°44' W 009°06'0 0.0
2018-Feb-15 08:30N 38°44' W 009°06'0 0.0
2018-Feb-15 08:00N 38°44' W 009°06'0 0.0
2018-Feb-15 07:30N 38°44' W 009°06'0 0.0
2018-Feb-15 07:00N 38°44' W 009°06'2 3.4
2018-Feb-15 06:31N 38°42' W 009°08'5 9.7
2018-Feb-15 05:58N 38°41' W 009°14'4 7.9
2018-Feb-15 05:30N 38°40' W 009°19'510.7
2018-Feb-15 05:00N 38°36' W 009°24'510.7
2018-Feb-15 04:30N 38°37' W 009°30'510.8
2018-Feb-15 04:00N 38°39' W 009°37'4 8.6
2018-Feb-15 03:30N 38°41' W 009°42'611.4
2018-Feb-15 03:00N 38°47' W 009°43'611.4
2018-Feb-15 02:30N 38°52' W 009°43'611.0
2018-Feb-15 02:00N 38°58' W 009°43'510.9
2018-Feb-15 01:30N 39°03' W 009°43'511.0
2018-Feb-15 01:00N 39°09' W 009°43'510.9
2018-Feb-15 00:30N 39°14' W 009°43'611.0
2018-Feb-15 00:00N 39°20' W 009°43'11011.5
2018-Feb-14 14:25N 41°02' W 008°50'511.8
2018-Feb-14 14:00N 41°06' W 008°46'510.1
2018-Feb-14 13:30N 41°10' W 008°42'2 3.0
2018-Feb-14 13:00N 41°12' W 008°41'0 0.0
2018-Feb-14 12:30N 41°12' W 008°41'0 0.0
2018-Feb-14 12:00N 41°12' W 008°41'0 0.0
2018-Feb-14 11:30N 41°12' W 008°41'0 0.0
2018-Feb-14 11:00N 41°12' W 008°41'0 0.0
2018-Feb-14 10:30N 41°12' W 008°41'0 0.0
2018-Feb-14 10:00N 41°12' W 008°41'0 0.0
2018-Feb-14 09:30N 41°12' W 008°41'0 0.0
2018-Feb-14 09:00N 41°12' W 008°41'0 0.0
2018-Feb-14 08:30N 41°12' W 008°41'0 0.0
2018-Feb-14 08:00N 41°12' W 008°41'0 0.0
2018-Feb-14 07:30N 41°12' W 008°41'0 0.0
2018-Feb-14 07:00N 41°12' W 008°41'0 0.0
2018-Feb-14 06:30N 41°12' W 008°41'0 0.0
2018-Feb-14 06:00N 41°12' W 008°41'0 0.0
2018-Feb-14 05:30N 41°12' W 008°41'0 0.0
2018-Feb-14 05:00N 41°12' W 008°41'0 0.0
2018-Feb-14 04:30N 41°12' W 008°41'0 0.0
2018-Feb-14 04:00N 41°12' W 008°41'0 0.0
2018-Feb-14 03:30N 41°12' W 008°41'0 0.0
2018-Feb-14 03:00N 41°12' W 008°41'0 0.0
2018-Feb-14 02:30N 41°12' W 008°41'0 0.0
2018-Feb-14 02:00N 41°12' W 008°41'0 0.0
2018-Feb-14 01:30N 41°12' W 008°41'0 0.0
2018-Feb-14 01:00N 41°12' W 008°41'0 0.4
2018-Feb-14 00:30N 41°11' W 008°41'3 5.1
2018-Feb-14 00:00N 41°10' W 008°44'  
Track history (hours):
 
Tides and Currents Weather Stations Pressure Air Temp Water Temp Dewpoint Dewpoint Depression Visibility Wind Speed Wind Dir Waves Ship Positions

Elite

Last reported at 2018-Feb-22 05:00 UTC. Time now 2018-Feb-22 05:09 UTC.
Position N 50°51' E 001°24'.

Length 149 m; draft 8.5 m.

Type: Ship (hazmat cat A). MMSI: 246363000.

Date/timePositionNaut miles runAvg speedWind from/ knotsBaromVisibWave heightAir tempDewpointWater temp
2018-Feb-22 05:00N 50°51' E 001°24'6011.9
2018-Feb-21 23:55N 50°20' E 000°03'613.1
2018-Feb-21 23:30N 50°19' W 000°05'713.0
2018-Feb-21 23:00N 50°17' W 000°15'2612.4
2018-Feb-21 20:53N 50°10' W 000°55'411.4
2018-Feb-21 20:30N 50°09' W 001°01'510.8
2018-Feb-21 20:00N 50°08' W 001°09'510.3
2018-Feb-21 19:30N 50°07' W 001°17'5 9.5
2018-Feb-21 19:01N 50°05' W 001°24'5 9.3
2018-Feb-21 18:30N 50°04' W 001°31'4 8.8
2018-Feb-21 18:01N 50°03' W 001°38'4 8.4
2018-Feb-21 17:30N 50°02' W 001°44'4 8.3
2018-Feb-21 17:00N 50°00' W 001°50'12213.6
2018-Feb-21 08:04N 49°07' W 004°39'117.1
2018-Feb-21 07:59N 49°06' W 004°41'916.7
2018-Feb-21 07:28N 49°02' W 004°52'3316.8
2018-Feb-21 05:29N 48°45' W 005°36'46514.3
2018-Feb-19 21:01N 41°21' W 008°54'115.1
2018-Feb-19 20:55N 41°20' W 008°53'715.3
2018-Feb-19 20:30N 41°14' W 008°49'612.5
2018-Feb-19 20:00N 41°10' W 008°42'2 3.2
2018-Feb-19 19:30N 41°12' W 008°41'0 0.0
2018-Feb-19 19:00N 41°12' W 008°41'0 0.0
2018-Feb-19 18:30N 41°12' W 008°41'0 0.0
2018-Feb-19 18:00N 41°12' W 008°41'0 0.0
2018-Feb-19 17:30N 41°12' W 008°41'0 0.0
2018-Feb-19 17:00N 41°12' W 008°41'0 0.0
2018-Feb-19 16:30N 41°12' W 008°41'0 0.0
2018-Feb-19 16:00N 41°12' W 008°41'0 0.0
2018-Feb-19 15:30N 41°12' W 008°41'0 0.0
2018-Feb-19 15:00N 41°12' W 008°41'0 0.0
2018-Feb-19 14:30N 41°12' W 008°41'0 0.0
2018-Feb-19 14:00N 41°12' W 008°41'0 0.0
2018-Feb-19 13:30N 41°12' W 008°41'0 0.0
2018-Feb-19 13:00N 41°12' W 008°41'0 0.0
2018-Feb-19 12:30N 41°12' W 008°41'0 0.0
2018-Feb-19 12:00N 41°12' W 008°41'0 0.0
2018-Feb-19 11:30N 41°12' W 008°41'0 0.0
2018-Feb-19 11:00N 41°12' W 008°41'0 0.0
2018-Feb-19 10:30N 41°12' W 008°41'0 0.0
2018-Feb-19 10:00N 41°12' W 008°41'0 0.0
2018-Feb-19 09:30N 41°12' W 008°41'0 0.0
2018-Feb-19 09:00N 41°12' W 008°41'0 0.0
2018-Feb-19 08:30N 41°12' W 008°41'0 0.0
2018-Feb-19 08:00N 41°12' W 008°41'0 0.0
2018-Feb-19 07:30N 41°12' W 008°41'0 0.0
2018-Feb-19 07:00N 41°12' W 008°41'0 0.0
2018-Feb-19 06:30N 41°12' W 008°41'0 0.0
2018-Feb-19 06:01N 41°12' W 008°41'0 0.0
2018-Feb-19 05:30N 41°12' W 008°41'0 0.0
2018-Feb-19 05:00N 41°12' W 008°41'0 0.0
2018-Feb-19 04:30N 41°12' W 008°41'0 0.0
2018-Feb-19 04:00N 41°12' W 008°41'0 0.0
2018-Feb-19 03:31N 41°12' W 008°41'0 0.0
2018-Feb-19 03:00N 41°12' W 008°41'0 0.0
2018-Feb-19 02:30N 41°12' W 008°41'0 0.0
2018-Feb-19 02:00N 41°12' W 008°41'0 0.0
2018-Feb-19 01:29N 41°12' W 008°41'0 0.0
2018-Feb-19 01:00N 41°12' W 008°41'0 0.0
2018-Feb-19 00:30N 41°12' W 008°41'0 0.0
2018-Feb-19 00:00N 41°12' W 008°41'0 0.0
2018-Feb-18 23:30N 41°12' W 008°41'0 0.0
2018-Feb-18 23:00N 41°12' W 008°41'0 0.0
2018-Feb-18 22:30N 41°12' W 008°41'0 0.0
2018-Feb-18 22:00N 41°12' W 008°41'0 0.0
2018-Feb-18 21:30N 41°12' W 008°41'0 0.0
2018-Feb-18 21:00N 41°12' W 008°41'0 0.0
2018-Feb-18 20:30N 41°12' W 008°41'0 0.0
2018-Feb-18 20:00N 41°12' W 008°41'0 0.4
2018-Feb-18 19:30N 41°11' W 008°41'2 4.3
2018-Feb-18 19:00N 41°09' W 008°42'2 4.3
2018-Feb-18 18:30N 41°08' W 008°45'0 0.5
2018-Feb-18 17:58N 41°08' W 008°45'0 0.0
2018-Feb-18 17:25N 41°08' W 008°45'0 0.0
2018-Feb-18 16:58N 41°08' W 008°45'0 0.0
2018-Feb-18 16:28N 41°08' W 008°45'0 0.0
2018-Feb-18 15:52N 41°08' W 008°45'0 0.0
2018-Feb-18 15:28N 41°08' W 008°45'0 0.0
2018-Feb-18 14:58N 41°08' W 008°45'0 0.0
2018-Feb-18 14:28N 41°08' W 008°45'0 0.0
2018-Feb-18 13:46N 41°08' W 008°45'0 0.0
2018-Feb-18 13:28N 41°08' W 008°45'0 0.0
2018-Feb-18 12:55N 41°08' W 008°45'0 0.1
2018-Feb-18 12:28N 41°08' W 008°45'0 0.0
2018-Feb-18 11:58N 41°08' W 008°45'0 0.0
2018-Feb-18 11:28N 41°08' W 008°45'0 0.0
2018-Feb-18 10:58N 41°08' W 008°45'0 0.0
2018-Feb-18 10:28N 41°08' W 008°45'0 0.0
2018-Feb-18 09:58N 41°08' W 008°45'0 0.0
2018-Feb-18 09:28N 41°08' W 008°45'0 0.1
2018-Feb-18 08:55N 41°08' W 008°45'0 0.1
2018-Feb-18 08:28N 41°08' W 008°45'0 0.0
2018-Feb-18 07:58N 41°08' W 008°45'0 0.1
2018-Feb-18 07:28N 41°08' W 008°45'0 0.0
2018-Feb-18 06:58N 41°08' W 008°45'0 0.0
2018-Feb-18 06:28N 41°08' W 008°45'0 0.0
2018-Feb-18 05:58N 41°08' W 008°45'0 0.0
2018-Feb-18 05:28N 41°08' W 008°45'0 0.0
2018-Feb-18 04:58N 41°08' W 008°45'0 0.0
2018-Feb-18 04:28N 41°08' W 008°45'0 0.0
2018-Feb-18 03:58N 41°08' W 008°45'0 0.0
2018-Feb-18 03:28N 41°08' W 008°45'0 0.0
2018-Feb-18 02:58N 41°08' W 008°45'0 0.0
2018-Feb-18 02:28N 41°08' W 008°45'0 0.0
2018-Feb-18 01:58N 41°08' W 008°45'0 0.0
2018-Feb-18 01:28N 41°08' W 008°45'0 0.0
2018-Feb-18 00:55N 41°08' W 008°45'0 0.0
2018-Feb-18 00:28N 41°08' W 008°45'0 0.0
2018-Feb-17 23:55N 41°08' W 008°45'0 0.0
2018-Feb-17 23:28N 41°08' W 008°45'0 0.0
2018-Feb-17 22:58N 41°08' W 008°45'0 0.0
2018-Feb-17 22:25N 41°08' W 008°45'0 0.0
2018-Feb-17 21:55N 41°08' W 008°45'0 0.0
2018-Feb-17 21:25N 41°08' W 008°45'0 0.0
2018-Feb-17 21:01N 41°08' W 008°45'0 0.0
2018-Feb-17 20:31N 41°08' W 008°45'0 0.0
2018-Feb-17 20:01N 41°08' W 008°45'0 0.0
2018-Feb-17 19:30N 41°08' W 008°45'0 0.0
2018-Feb-17 18:57N 41°08' W 008°45'0 0.0
2018-Feb-17 18:30N 41°08' W 008°45'0 0.0
2018-Feb-17 18:00N 41°08' W 008°45'0 0.0
2018-Feb-17 17:21N 41°08' W 008°45'0 0.0
2018-Feb-17 17:00N 41°08' W 008°45'0 0.0
2018-Feb-17 16:27N 41°08' W 008°45'0 0.0
2018-Feb-17 16:00N 41°08' W 008°45'0 0.0
2018-Feb-17 15:15N 41°08' W 008°45'0 0.0
2018-Feb-17 14:42N 41°08' W 008°45'0 0.0
2018-Feb-17 14:18N 41°08' W 008°45'0 0.0
2018-Feb-17 14:00N 41°08' W 008°45'0 0.0
2018-Feb-17 13:24N 41°08' W 008°45'0 0.0
2018-Feb-17 12:57N 41°08' W 008°45'0 0.0
2018-Feb-17 12:24N 41°08' W 008°45'0 0.0
2018-Feb-17 12:00N 41°08' W 008°45'0 0.0
2018-Feb-17 11:30N 41°08' W 008°45'0 0.0
2018-Feb-17 10:57N 41°08' W 008°45'0 0.0
2018-Feb-17 10:30N 41°08' W 008°45'0 0.0
2018-Feb-17 10:00N 41°08' W 008°45'0 0.2
2018-Feb-17 09:30N 41°08' W 008°45'9714.8
2018-Feb-17 02:59N 39°41' W 009°40'816.2
2018-Feb-17 02:29N 39°34' W 009°44'815.7
2018-Feb-17 01:59N 39°26' W 009°45'816.4
2018-Feb-17 01:30N 39°18' W 009°45'816.0
2018-Feb-17 01:00N 39°10' W 009°45'815.9
2018-Feb-17 00:30N 39°02' W 009°45'816.1
2018-Feb-17 00:00N 38°54' W 009°43'815.9
2018-Feb-16 23:31N 38°47' W 009°42'815.8
2018-Feb-16 23:00N 38°39' W 009°41'815.3
2018-Feb-16 22:30N 38°33' W 009°34'815.6
2018-Feb-16 22:00N 38°28' W 009°27'815.6
2018-Feb-16 21:30N 38°22' W 009°20'713.9
2018-Feb-16 21:00N 38°21' W 009°11'815.7
2018-Feb-16 20:30N 38°25' W 009°02'612.7
2018-Feb-16 20:00N 38°29' W 008°56'4 7.2
2018-Feb-16 19:30N 38°31' W 008°52'0 0.0
2018-Feb-16 19:00N 38°31' W 008°52'0 0.0
2018-Feb-16 18:30N 38°31' W 008°52'0 0.0
2018-Feb-16 17:59N 38°31' W 008°52'0 0.0
2018-Feb-16 17:30N 38°31' W 008°52'0 0.0
2018-Feb-16 17:00N 38°31' W 008°52'0 0.0
2018-Feb-16 16:30N 38°31' W 008°52'0 0.0
2018-Feb-16 16:00N 38°31' W 008°52'0 0.0
2018-Feb-16 15:30N 38°31' W 008°52'0 0.0
2018-Feb-16 15:00N 38°31' W 008°52'0 0.0
2018-Feb-16 14:30N 38°31' W 008°52'0 0.0
2018-Feb-16 13:58N 38°31' W 008°52'0 0.0
2018-Feb-16 13:25N 38°31' W 008°52'0 0.0
2018-Feb-16 13:00N 38°31' W 008°52'0 0.0
2018-Feb-16 12:24N 38°31' W 008°52'0 0.0
2018-Feb-16 11:59N 38°31' W 008°52'0 0.0
2018-Feb-16 11:29N 38°31' W 008°52'0 0.0
2018-Feb-16 10:53N 38°31' W 008°52'0 0.0
2018-Feb-16 10:30N 38°31' W 008°52'0 0.0
2018-Feb-16 10:00N 38°31' W 008°52'0 0.0
2018-Feb-16 09:30N 38°31' W 008°52'0 0.0
2018-Feb-16 08:59N 38°31' W 008°52'0 0.0
2018-Feb-16 08:30N 38°31' W 008°52'0 0.0
2018-Feb-16 07:47N 38°31' W 008°52'0 0.0
2018-Feb-16 07:22N 38°31' W 008°52'0 0.0
2018-Feb-16 06:52N 38°31' W 008°52'0 0.0
2018-Feb-16 06:30N 38°31' W 008°52'0 0.0
2018-Feb-16 06:00N 38°31' W 008°52'0 0.0
2018-Feb-16 05:29N 38°31' W 008°52'0 0.0
2018-Feb-16 04:47N 38°31' W 008°52'0 0.0
2018-Feb-16 04:30N 38°31' W 008°52'0 0.0
2018-Feb-16 04:00N 38°31' W 008°52'0 0.0
2018-Feb-16 03:30N 38°31' W 008°52'0 0.0
2018-Feb-16 03:00N 38°31' W 008°52'0 0.0
2018-Feb-16 02:29N 38°31' W 008°52'0 0.0
2018-Feb-16 02:00N 38°31' W 008°52'0 0.0
2018-Feb-16 01:30N 38°31' W 008°52'0 0.0
2018-Feb-16 00:53N 38°31' W 008°52'0 0.0
2018-Feb-16 00:30N 38°31' W 008°52'0 0.2
2018-Feb-15 23:56N 38°31' W 008°52'3 7.0
2018-Feb-15 23:30N 38°29' W 008°56'713.8
2018-Feb-15 23:00N 38°25' W 009°02'917.6
2018-Feb-15 22:31N 38°21' W 009°12'815.5
2018-Feb-15 22:00N 38°26' W 009°19'917.6
2018-Feb-15 21:30N 38°34' W 009°22'816.0
2018-Feb-15 21:00N 38°41' W 009°17'612.8
2018-Feb-15 20:30N 38°42' W 009°09'2 5.0
2018-Feb-15 20:00N 38°44' W 009°06'0 0.0
2018-Feb-15 19:30N 38°44' W 009°06'0 0.0
2018-Feb-15 18:59N 38°44' W 009°06'0 0.0
2018-Feb-15 18:30N 38°44' W 009°06'0 0.0
2018-Feb-15 18:00N 38°44' W 009°06'0 0.0
2018-Feb-15 17:30N 38°44' W 009°06'0 0.0
2018-Feb-15 17:00N 38°44' W 009°06'0 0.0
2018-Feb-15 16:30N 38°44' W 009°06'0 0.0
2018-Feb-15 16:00N 38°44' W 009°06'0 0.0
2018-Feb-15 15:30N 38°44' W 009°06'0 0.0
2018-Feb-15 15:00N 38°44' W 009°06'0 0.0
2018-Feb-15 14:30N 38°44' W 009°06'0 0.0
2018-Feb-15 14:00N 38°44' W 009°06'0 0.0
2018-Feb-15 13:30N 38°44' W 009°06'0 0.0
2018-Feb-15 13:00N 38°44' W 009°06'0 0.0
2018-Feb-15 12:30N 38°44' W 009°06'0 0.0
2018-Feb-15 12:00N 38°44' W 009°06'0 0.0
2018-Feb-15 11:30N 38°44' W 009°06'0 0.0
2018-Feb-15 11:00N 38°44' W 009°06'0 0.0
2018-Feb-15 10:30N 38°44' W 009°06'0 0.0
2018-Feb-15 10:00N 38°44' W 009°06'0 0.0
2018-Feb-15 09:30N 38°44' W 009°06'0 0.0
2018-Feb-15 09:00N 38°44' W 009°06'0 0.0
2018-Feb-15 08:30N 38°44' W 009°06'0 0.0
2018-Feb-15 08:00N 38°44' W 009°06'0 0.0
2018-Feb-15 07:30N 38°44' W 009°06'0 0.0
2018-Feb-15 07:00N 38°44' W 009°06'2 3.4
2018-Feb-15 06:31N 38°42' W 009°08'5 9.7
2018-Feb-15 05:58N 38°41' W 009°14'4 7.9
2018-Feb-15 05:30N 38°40' W 009°19'510.7
2018-Feb-15 05:00N 38°36' W 009°24'510.7
2018-Feb-15 04:30N 38°37' W 009°30'510.8
2018-Feb-15 04:00N 38°39' W 009°37'4 8.6
2018-Feb-15 03:30N 38°41' W 009°42'611.4
2018-Feb-15 03:00N 38°47' W 009°43'611.4
2018-Feb-15 02:30N 38°52' W 009°43'611.0
2018-Feb-15 02:00N 38°58' W 009°43'510.9
2018-Feb-15 01:30N 39°03' W 009°43'511.0
2018-Feb-15 01:00N 39°09' W 009°43'510.9
2018-Feb-15 00:30N 39°14' W 009°43'611.0
2018-Feb-15 00:00N 39°20' W 009°43'11011.5
2018-Feb-14 14:25N 41°02' W 008°50'511.8
2018-Feb-14 14:00N 41°06' W 008°46'510.1
2018-Feb-14 13:30N 41°10' W 008°42'2 3.0
2018-Feb-14 13:00N 41°12' W 008°41'0 0.0
2018-Feb-14 12:30N 41°12' W 008°41'0 0.0
2018-Feb-14 12:00N 41°12' W 008°41'0 0.0
2018-Feb-14 11:30N 41°12' W 008°41'0 0.0
2018-Feb-14 11:00N 41°12' W 008°41'0 0.0
2018-Feb-14 10:30N 41°12' W 008°41'0 0.0
2018-Feb-14 10:00N 41°12' W 008°41'0 0.0
2018-Feb-14 09:30N 41°12' W 008°41'0 0.0
2018-Feb-14 09:00N 41°12' W 008°41'0 0.0
2018-Feb-14 08:30N 41°12' W 008°41'0 0.0
2018-Feb-14 08:00N 41°12' W 008°41'0 0.0
2018-Feb-14 07:30N 41°12' W 008°41'0 0.0
2018-Feb-14 07:00N 41°12' W 008°41'0 0.0
2018-Feb-14 06:30N 41°12' W 008°41'0 0.0
2018-Feb-14 06:00N 41°12' W 008°41'0 0.0
2018-Feb-14 05:30N 41°12' W 008°41'0 0.0
2018-Feb-14 05:00N 41°12' W 008°41'0 0.0
2018-Feb-14 04:30N 41°12' W 008°41'0 0.0
2018-Feb-14 04:00N 41°12' W 008°41'0 0.0
2018-Feb-14 03:30N 41°12' W 008°41'0 0.0
2018-Feb-14 03:00N 41°12' W 008°41'0 0.0
2018-Feb-14 02:30N 41°12' W 008°41'0 0.0
2018-Feb-14 02:00N 41°12' W 008°41'0 0.0
2018-Feb-14 01:30N 41°12' W 008°41'0 0.0
2018-Feb-14 01:00N 41°12' W 008°41'0 0.4
2018-Feb-14 00:30N 41°11' W 008°41'3 5.1
2018-Feb-14 00:00N 41°10' W 008°44'  

Dump ship's entire track history